Time;durP1;ratioP1;P1;durP2;ratioP2;P2;SDS_P1;SDS_P2;PMS_P1;PMS_P2;Temp;Humidity;BMP_temperature;BMP_pressure;BME280_temperature;BME280_humidity;BME280_pressure;Samples;Min_cycle;Max_cycle;Signal;HPM_P1;HPM_P2
2021/08/11 00:02:23;;;;;;;9.43;2.10;;;;;;;-148.56;100.00;61375.16;5050634;28;20407;-31
2021/08/11 00:05:47;;;;;;;2.95;1.70;;;;;;;-148.56;100.00;61375.16;5052214;28;20494;-33
2021/08/11 00:09:11;;;;;;;2.10;1.70;;;;;;;-148.56;100.00;61375.16;5058585;28;20654;-32
2021/08/11 00:12:35;;;;;;;2.63;1.60;;;;;;;-148.56;100.00;61375.16;5046750;28;20085;-31
2021/08/11 00:15:59;;;;;;;2.47;1.67;;;;;;;-148.56;100.00;61375.16;5055344;28;20116;-32
2021/08/11 00:19:23;;;;;;;3.20;1.90;;;;;;;-148.56;100.00;61375.16;5056800;28;20056;-29
2021/08/11 00:22:46;;;;;;;1.95;1.50;;;;;;;-148.56;100.00;61375.16;5057686;28;20579;-32
2021/08/11 00:26:10;;;;;;;3.75;1.80;;;;;;;-148.56;100.00;61375.16;5053382;28;20039;-35
2021/08/11 00:29:34;;;;;;;3.47;1.90;;;;;;;-148.56;100.00;61375.16;5054464;28;20044;-34
2021/08/11 00:32:58;;;;;;;2.60;1.80;;;;;;;-148.56;100.00;61375.16;5054949;28;20035;-33
2021/08/11 00:36:22;;;;;;;2.40;1.52;;;;;;;-148.56;100.00;61375.16;5054345;28;20020;-33
2021/08/11 00:39:46;;;;;;;3.80;1.77;;;;;;;-148.56;100.00;61375.16;5055567;28;20090;-31
2021/08/11 00:43:10;;;;;;;3.25;1.73;;;;;;;-148.56;100.00;61375.16;5049163;28;20032;-33
2021/08/11 00:46:34;;;;;;;2.75;1.73;;;;;;;-148.56;100.00;61375.16;5045845;28;20036;-32
2021/08/11 00:49:58;;;;;;;1.50;1.23;;;;;;;-148.56;100.00;61375.16;5055314;28;20063;-34
2021/08/11 00:53:23;;;;;;;1.98;1.45;;;;;;;-148.56;100.00;61375.16;5048940;28;20086;-31
2021/08/11 00:56:47;;;;;;;3.28;1.63;;;;;;;-148.56;100.00;61375.16;5049136;28;20111;-36
2021/08/11 01:00:13;;;;;;;3.10;1.80;;;;;;;-148.56;100.00;61375.16;5049189;28;20107;-32
2021/08/11 01:03:36;;;;;;;5.40;1.60;;;;;;;-148.56;100.00;61375.16;5039093;28;20029;-30
2021/08/11 01:07:01;;;;;;;5.38;1.50;;;;;;;-148.56;100.00;61375.16;5044861;28;20040;-34
2021/08/11 01:10:25;;;;;;;3.08;1.70;;;;;;;-148.56;100.00;61375.16;5053154;28;20218;-29
2021/08/11 01:13:49;;;;;;;5.72;1.85;;;;;;;-148.56;100.00;61375.16;5045307;28;20040;-30
2021/08/11 01:17:13;;;;;;;3.38;1.60;;;;;;;-148.56;100.00;61375.16;5049186;28;20059;-32
2021/08/11 01:20:37;;;;;;;3.15;2.08;;;;;;;-148.56;100.00;61375.16;5056980;28;20035;-31
2021/08/11 01:24:25;;;;;;;3.70;1.83;;;;;;;-148.56;100.00;61375.16;5056329;28;20336;-32
2021/08/11 01:27:56;;;;;;;2.33;1.50;;;;;;;-148.56;100.00;61375.16;5043147;28;20717;-36
2021/08/11 01:31:22;;;;;;;3.03;1.30;;;;;;;-148.56;100.00;61375.16;5044992;28;20564;-32
2021/08/11 01:35:01;;;;;;;2.22;1.60;;;;;;;-148.56;100.00;61375.16;5049254;28;20298;-32
2021/08/11 01:38:27;;;;;;;6.05;1.50;;;;;;;-148.56;100.00;61375.16;5049346;28;20068;-32
2021/08/11 01:41:54;;;;;;;3.35;1.60;;;;;;;-148.56;100.00;61375.16;5029872;28;20071;-31
2021/08/11 01:45:19;;;;;;;4.03;1.60;;;;;;;-148.56;100.00;61375.16;5046270;28;20028;-28
2021/08/11 01:48:48;;;;;;;4.43;1.63;;;;;;;-148.56;100.00;61375.16;5053881;28;20028;-36
2021/08/11 01:52:12;;;;;;;1.80;1.48;;;;;;;-148.56;100.00;61375.16;5056469;28;20052;-34
2021/08/11 01:55:36;;;;;;;2.08;1.60;;;;;;;-148.56;100.00;61375.16;5051449;28;20715;-29
2021/08/11 01:59:01;;;;;;;1.90;1.30;;;;;;;-148.56;100.00;61375.16;5043499;28;20032;-33
2021/08/11 02:02:24;;;;;;;2.10;1.40;;;;;;;-148.56;100.00;61375.16;5053113;28;20040;-30
2021/08/11 02:05:49;;;;;;;3.70;1.70;;;;;;;-148.56;100.00;61375.16;5055348;28;20094;-33
2021/08/11 02:09:13;;;;;;;3.47;1.65;;;;;;;-148.56;100.00;61375.16;5046184;28;20940;-31
2021/08/11 02:12:37;;;;;;;2.95;1.60;;;;;;;-148.56;100.00;61375.16;5053977;28;20509;-30
2021/08/11 02:16:03;;;;;;;2.25;1.63;;;;;;;-148.56;100.00;61375.16;5052247;28;20032;-34
2021/08/11 02:19:26;;;;;;;2.55;1.45;;;;;;;-148.56;100.00;61375.16;5053223;28;20057;-32
2021/08/11 02:22:50;;;;;;;4.22;1.50;;;;;;;-148.56;100.00;61375.16;5050883;28;20028;-34
2021/08/11 02:26:33;;;;;;;2.10;1.40;;;;;;;-148.56;100.00;61375.16;5052724;28;20107;-30
2021/08/11 02:30:04;;;;;;;4.07;1.52;;;;;;;-148.56;100.00;61375.16;5045009;28;20029;-31
2021/08/11 02:33:59;;;;;;;4.13;1.75;;;;;;;-148.56;100.00;61375.16;5048642;28;20036;-35
2021/08/11 02:37:30;;;;;;;2.92;1.58;;;;;;;-148.56;100.00;61375.16;5051717;28;20605;-35
2021/08/11 02:41:03;;;;;;;3.40;1.40;;;;;;;-148.56;100.00;61375.16;5050147;28;20028;-35
2021/08/11 02:44:31;;;;;;;2.25;1.50;;;;;;;-148.56;100.00;61375.16;5055930;28;20033;-34
2021/08/11 02:47:55;;;;;;;1.98;1.40;;;;;;;-148.56;100.00;61375.16;5058077;28;20024;-35
2021/08/11 02:51:19;;;;;;;3.53;1.70;;;;;;;-148.56;100.00;61375.16;5073056;28;20933;-34
2021/08/11 02:54:43;;;;;;;1.92;1.30;;;;;;;-148.56;100.00;61375.16;5058608;28;20115;-31
2021/08/11 02:58:06;;;;;;;2.70;1.60;;;;;;;-148.56;100.00;61375.16;5043269;28;20031;-35
2021/08/11 03:01:30;;;;;;;1.63;1.27;;;;;;;-148.56;100.00;61375.16;5054818;28;20033;-33
2021/08/11 03:04:58;;;;;;;2.35;1.35;;;;;;;-148.56;100.00;61375.16;5043748;28;20573;-33
2021/08/11 03:08:22;;;;;;;3.47;1.60;;;;;;;-148.56;100.00;61375.16;5043494;28;20032;-33
2021/08/11 03:11:45;;;;;;;1.85;1.20;;;;;;;-148.56;100.00;61375.16;5044270;28;20024;-30
2021/08/11 03:15:10;;;;;;;1.92;1.48;;;;;;;-148.56;100.00;61375.16;5040403;28;20032;-33
2021/08/11 03:18:34;;;;;;;4.25;1.75;;;;;;;-148.56;100.00;61375.16;5050609;28;20769;-35
2021/08/11 03:21:58;;;;;;;4.35;1.70;;;;;;;-148.56;100.00;61375.16;5053090;28;21429;-35
2021/08/11 03:25:22;;;;;;;2.47;1.40;;;;;;;-148.56;100.00;61375.16;5055569;28;20028;-30
2021/08/11 03:28:46;;;;;;;2.90;1.70;;;;;;;-148.56;100.00;61375.16;5056968;28;20032;-31
2021/08/11 03:32:10;;;;;;;2.47;1.55;;;;;;;-148.56;100.00;61375.16;5044791;28;20063;-31
2021/08/11 03:35:34;;;;;;;2.53;1.60;;;;;;;-148.56;100.00;61375.16;5054980;28;20045;-34
2021/08/11 03:38:57;;;;;;;3.08;1.90;;;;;;;-148.56;100.00;61375.16;5058023;28;20441;-32
2021/08/11 03:42:21;;;;;;;2.40;1.50;;;;;;;-148.56;100.00;61375.16;5050451;28;20132;-31
2021/08/11 03:45:45;;;;;;;3.67;1.65;;;;;;;-148.56;100.00;61375.16;5057713;28;20052;-32
2021/08/11 03:49:09;;;;;;;2.13;1.33;;;;;;;-148.56;100.00;61375.16;5055236;28;20173;-29
2021/08/11 03:52:33;;;;;;;1.65;1.50;;;;;;;-148.56;100.00;61375.16;5052620;28;20120;-33
2021/08/11 03:55:57;;;;;;;2.97;1.60;;;;;;;-148.56;100.00;61375.16;5068747;28;20032;-31
2021/08/11 03:59:21;;;;;;;2.05;1.48;;;;;;;-148.56;100.00;61375.16;5053706;28;20147;-34
2021/08/11 04:02:44;;;;;;;4.40;1.50;;;;;;;-148.56;100.00;61375.16;5052453;28;20109;-36
2021/08/11 04:06:08;;;;;;;2.97;1.80;;;;;;;-148.56;100.00;61375.16;5055465;28;20708;-31
2021/08/11 04:09:32;;;;;;;3.40;1.45;;;;;;;-148.56;100.00;61375.16;5058504;28;20027;-35
2021/08/11 04:12:56;;;;;;;2.55;1.52;;;;;;;-148.56;100.00;61375.16;5059175;28;20033;-34
2021/08/11 04:16:20;;;;;;;2.00;1.52;;;;;;;-148.56;100.00;61375.16;5053020;28;20063;-33
2021/08/11 04:19:44;;;;;;;1.55;1.30;;;;;;;-148.56;100.00;61375.16;5050467;28;20056;-31
2021/08/11 04:23:08;;;;;;;2.17;1.65;;;;;;;-148.56;100.00;61375.16;5049376;28;20052;-30
2021/08/11 04:26:34;;;;;;;5.47;1.40;;;;;;;-148.56;100.00;61375.16;5053759;28;20574;-31
2021/08/11 04:29:58;;;;;;;2.47;1.58;;;;;;;-148.56;100.00;61375.16;5052407;28;20029;-31
2021/08/11 04:33:22;;;;;;;2.03;1.48;;;;;;;-148.56;100.00;61375.16;5053351;28;20036;-34
2021/08/11 04:36:46;;;;;;;3.58;1.50;;;;;;;-148.56;100.00;61375.16;5045902;28;20082;-31
2021/08/11 04:40:10;;;;;;;2.50;1.63;;;;;;;-148.56;100.00;61375.16;5053659;28;20070;-32
2021/08/11 04:43:34;;;;;;;2.50;1.33;;;;;;;-148.56;100.00;61375.16;5050888;28;20852;-32
2021/08/11 04:46:58;;;;;;;6.82;1.90;;;;;;;-148.56;100.00;61375.16;5057656;28;20043;-32
2021/08/11 04:50:22;;;;;;;5.35;1.77;;;;;;;-148.56;100.00;61375.16;5056127;28;20450;-33
2021/08/11 04:53:46;;;;;;;4.57;1.77;;;;;;;-148.56;100.00;61375.16;5052039;28;20115;-29
2021/08/11 04:57:10;;;;;;;1.42;1.30;;;;;;;-148.56;100.00;61375.16;5055529;28;20036;-35
2021/08/11 05:00:34;;;;;;;2.17;1.40;;;;;;;-148.56;100.00;61375.16;5053544;28;20021;-31
2021/08/11 05:03:58;;;;;;;2.95;1.63;;;;;;;-148.56;100.00;61375.16;5046451;28;20448;-32
2021/08/11 05:07:22;;;;;;;3.05;1.40;;;;;;;-148.56;100.00;61375.16;5056565;28;20074;-33
2021/08/11 05:10:45;;;;;;;2.97;1.52;;;;;;;-148.56;100.00;61375.16;5058226;28;20032;-30
2021/08/11 05:14:09;;;;;;;2.80;1.67;;;;;;;-148.56;100.00;61375.16;5050913;28;20024;-33
2021/08/11 05:17:33;;;;;;;3.88;1.58;;;;;;;-148.56;100.00;61375.16;5045645;28;20036;-31
2021/08/11 05:20:57;;;;;;;2.20;1.48;;;;;;;-148.56;100.00;61375.16;5050833;28;20024;-31
2021/08/11 05:24:21;;;;;;;3.97;1.50;;;;;;;-148.56;100.00;61375.16;5057495;28;20446;-32
2021/08/11 05:27:45;;;;;;;3.60;1.67;;;;;;;-148.56;100.00;61375.16;5043771;28;20446;-31
2021/08/11 05:31:09;;;;;;;2.30;1.58;;;;;;;-148.56;100.00;61375.16;5051438;28;20028;-32
2021/08/11 05:34:33;;;;;;;1.40;1.30;;;;;;;-148.56;100.00;61375.16;5054908;28;20036;-31
2021/08/11 05:37:57;;;;;;;2.65;1.58;;;;;;;-148.56;100.00;61375.16;5051682;28;20028;-31
2021/08/11 05:41:21;;;;;;;2.08;1.40;;;;;;;-148.56;100.00;61375.16;5051716;28;20160;-30
2021/08/11 05:44:45;;;;;;;3.28;1.60;;;;;;;-148.56;100.00;61375.16;5052249;28;20101;-34
2021/08/11 05:48:11;;;;;;;2.35;1.50;;;;;;;-148.56;100.00;61375.16;5050836;28;20052;-31
2021/08/11 05:51:36;;;;;;;1.88;1.48;;;;;;;-148.56;100.00;61375.16;5055493;28;20038;-34
2021/08/11 05:55:00;;;;;;;1.95;1.50;;;;;;;-148.56;100.00;61375.16;5049903;28;20639;-36
2021/08/11 05:58:24;;;;;;;3.22;1.60;;;;;;;-148.56;100.00;61375.16;5053234;28;20028;-30
2021/08/11 06:01:48;;;;;;;2.60;1.60;;;;;;;-148.56;100.00;61375.16;5063019;28;20123;-32
2021/08/11 06:05:12;;;;;;;6.28;1.60;;;;;;;-148.56;100.00;61375.16;5047724;28;20024;-28
2021/08/11 06:08:36;;;;;;;4.03;1.77;;;;;;;-148.56;100.00;61375.16;5048880;28;20068;-29
2021/08/11 06:12:00;;;;;;;7.60;2.88;;;;;;;-148.56;100.00;61375.16;5052794;28;20090;-31
2021/08/11 06:15:24;;;;;;;10.20;3.30;;;;;;;-148.56;100.00;61375.16;5042353;28;20040;-31
2021/08/11 06:18:48;;;;;;;13.18;3.55;;;;;;;-148.56;100.00;61375.16;5047918;28;20033;-32
2021/08/11 06:22:11;;;;;;;11.80;3.60;;;;;;;-148.56;100.00;61375.16;5050546;28;20464;-33
2021/08/11 06:25:28;;;;;;;8.65;3.58;;;;;;;-148.56;100.00;61375.16;5051092;28;20087;-32
2021/08/11 06:28:52;;;;;;;10.15;3.70;;;;;;;-148.56;100.00;61375.16;5053018;28;20032;-32
2021/08/11 06:32:16;;;;;;;10.75;3.90;;;;;;;-148.56;100.00;61375.16;5036867;28;20053;-33
2021/08/11 06:35:40;;;;;;;11.75;3.97;;;;;;;-148.56;100.00;61375.16;5008925;28;20069;-34
2021/08/11 06:39:03;;;;;;;8.65;3.75;;;;;;;-148.56;100.00;61375.16;5009114;28;20040;-29
2021/08/11 06:42:27;;;;;;;9.10;3.17;;;;;;;-148.56;100.00;61375.16;5008324;28;20148;-35
2021/08/11 06:45:51;;;;;;;9.82;3.60;;;;;;;-148.56;100.00;61375.16;5008443;28;20376;-30
2021/08/11 06:49:15;;;;;;;9.88;3.53;;;;;;;-148.56;100.00;61375.16;5011403;28;20115;-32
2021/08/11 06:52:39;;;;;;;7.95;4.07;;;;;;;-148.56;100.00;61375.16;5008164;28;20034;-33
2021/08/11 06:56:06;;;;;;;7.25;3.45;;;;;;;-148.56;100.00;61375.16;5010687;28;20095;-30
2021/08/11 06:59:30;;;;;;;8.75;3.90;;;;;;;-148.56;100.00;61375.16;5009888;28;20613;-33
2021/08/11 07:02:54;;;;;;;9.30;4.20;;;;;;;-148.56;100.00;61375.16;5011175;28;20033;-34
2021/08/11 07:06:18;;;;;;;6.40;3.67;;;;;;;-148.56;100.00;61375.16;5011040;28;20616;-29
2021/08/11 07:09:42;;;;;;;9.88;4.05;;;;;;;-148.56;100.00;61375.16;5007905;28;20084;-30
2021/08/11 07:13:06;;;;;;;8.75;3.83;;;;;;;-148.56;100.00;61375.16;5008283;28;20052;-31
2021/08/11 07:16:30;;;;;;;7.72;3.58;;;;;;;-148.56;100.00;61375.16;5010029;28;20045;-31
2021/08/11 07:19:54;;;;;;;6.38;3.67;;;;;;;-148.56;100.00;61375.16;5006756;28;20084;-31
2021/08/11 07:23:18;;;;;;;7.45;3.95;;;;;;;-148.56;100.00;61375.16;5013783;28;20040;-29
2021/08/11 07:26:41;;;;;;;7.55;4.07;;;;;;;-148.56;100.00;61375.16;5012111;28;20052;-33
2021/08/11 07:30:06;;;;;;;8.95;3.80;;;;;;;-148.56;100.00;61375.16;4992721;28;20034;-31
2021/08/11 07:33:30;;;;;;;7.10;3.97;;;;;;;-148.56;100.00;61375.16;5008981;28;20042;-34
2021/08/11 07:36:54;;;;;;;9.57;3.53;;;;;;;-148.56;100.00;61375.16;5006377;28;20130;-31
2021/08/11 07:40:18;;;;;;;8.38;3.67;;;;;;;-148.56;100.00;61375.16;5009221;28;20032;-29
2021/08/11 07:43:42;;;;;;;6.43;3.40;;;;;;;-148.56;100.00;61375.16;5009594;28;20041;-31
2021/08/11 07:47:06;;;;;;;4.95;3.28;;;;;;;-148.56;100.00;61375.16;5008397;28;20033;-35
2021/08/11 07:50:31;;;;;;;9.85;3.88;;;;;;;-148.56;100.00;61375.16;5009501;28;20148;-30
2021/08/11 07:53:55;;;;;;;8.82;3.60;;;;;;;-148.56;100.00;61375.16;5003501;28;20543;-29
2021/08/11 07:57:19;;;;;;;7.43;3.30;;;;;;;-148.56;100.00;61375.16;5007779;28;20274;-35
2021/08/11 08:00:42;;;;;;;8.05;3.42;;;;;;;-148.56;100.00;61375.16;5006904;28;20348;-30
2021/08/11 08:04:06;;;;;;;5.22;3.00;;;;;;;-148.56;100.00;61375.16;5020583;28;20025;-32
2021/08/11 08:07:30;;;;;;;8.30;3.60;;;;;;;-148.56;100.00;61375.16;5019425;28;20515;-30
2021/08/11 08:10:54;;;;;;;6.63;3.30;;;;;;;-148.56;100.00;61375.16;5017480;28;20052;-31
2021/08/11 08:14:18;;;;;;;7.13;3.30;;;;;;;-148.56;100.00;61375.16;5019066;28;20033;-31
2021/08/11 08:17:42;;;;;;;6.03;3.20;;;;;;;-148.56;100.00;61375.16;5031518;28;20041;-32
2021/08/11 08:21:07;;;;;;;7.78;3.28;;;;;;;-148.56;100.00;61375.16;5015912;28;20025;-30
2021/08/11 08:24:32;;;;;;;6.30;3.22;;;;;;;-148.56;100.00;61375.16;5021392;28;20040;-30
2021/08/11 08:27:57;;;;;;;12.75;4.70;;;;;;;-148.56;100.00;61375.16;5019440;28;20051;-36
2021/08/11 08:31:20;;;;;;;16.55;5.20;;;;;;;-148.56;100.00;61375.16;5015791;28;20056;-32
2021/08/11 08:34:44;;;;;;;19.98;5.68;;;;;;;-148.56;100.00;61375.16;5020766;28;20035;-32
2021/08/11 08:38:08;;;;;;;22.58;5.57;;;;;;;-148.56;100.00;61375.16;5019737;28;20025;-31
2021/08/11 08:41:36;;;;;;;12.00;5.15;;;;;;;-148.56;100.00;61375.16;5017360;28;20029;-34
2021/08/11 08:45:00;;;;;;;15.90;5.25;;;;;;;-148.56;100.00;61375.16;5016245;28;20021;-31
2021/08/11 08:48:24;;;;;;;15.13;5.32;;;;;;;-148.56;100.00;61375.16;5020828;28;20036;-34
2021/08/11 08:51:48;;;;;;;15.07;5.40;;;;;;;-148.56;100.00;61375.16;5021425;28;20492;-33
2021/08/11 08:55:15;;;;;;;13.35;4.68;;;;;;;-148.56;100.00;61375.16;5013196;28;20439;-30
2021/08/11 08:58:39;;;;;;;13.05;4.70;;;;;;;-148.56;100.00;61375.16;5019428;28;20143;-29
2021/08/11 09:02:03;;;;;;;14.60;5.13;;;;;;;-148.56;100.00;61375.16;5019619;28;20052;-29
2021/08/11 09:05:28;;;;;;;11.93;4.90;;;;;;;-148.56;100.00;61375.16;5018595;28;20036;-28
2021/08/11 09:08:56;;;;;;;10.40;4.55;;;;;;;-148.56;100.00;61375.16;5021225;28;20033;-32
2021/08/11 09:12:20;;;;;;;11.55;4.57;;;;;;;-148.56;100.00;61375.16;5014624;28;20551;-35
2021/08/11 09:15:46;;;;;;;10.98;4.50;;;;;;;-148.56;100.00;61375.16;5020497;28;20059;-33
2021/08/11 09:19:13;;;;;;;10.02;4.25;;;;;;;-148.56;100.00;61375.16;5020370;28;20546;-30
2021/08/11 09:22:44;;;;;;;11.05;4.10;;;;;;;-148.56;100.00;61375.16;5012014;28;20479;-31
2021/08/11 09:26:09;;;;;;;9.27;4.15;;;;;;;-148.56;100.00;61375.16;5010997;28;20029;-34
2021/08/11 09:29:33;;;;;;;12.15;5.05;;;;;;;-148.56;100.00;61375.16;5019454;28;20571;-32
2021/08/11 09:33:06;;;;;;;11.40;4.38;;;;;;;-148.56;100.00;61375.16;5018728;28;20169;-30
2021/08/11 09:36:42;;;;;;;11.20;4.43;;;;;;;-148.56;100.00;61375.16;5017200;28;20029;-29
2021/08/11 09:40:25;;;;;;;12.98;4.70;;;;;;;-148.56;100.00;61375.16;5018988;28;20029;-29
2021/08/11 09:44:03;;;;;;;9.75;4.10;;;;;;;-148.56;100.00;61375.16;5019528;28;20022;-32
2021/08/11 09:47:29;;;;;;;11.48;3.88;;;;;;;-148.56;100.00;61375.16;5018139;28;20646;-30
2021/08/11 09:51:07;;;;;;;11.85;3.70;;;;;;;-148.56;100.00;61375.16;5016910;28;20674;-31
2021/08/11 09:54:31;;;;;;;9.90;3.97;;;;;;;-148.56;100.00;61375.16;5018024;28;20029;-32
2021/08/11 09:57:55;;;;;;;8.88;4.10;;;;;;;-148.56;100.00;61375.16;5014058;28;20029;-31
2021/08/11 10:01:18;;;;;;;7.85;3.83;;;;;;;-148.56;100.00;61375.16;5018758;28;20035;-33
2021/08/11 10:04:55;;;;;;;8.43;3.75;;;;;;;-148.56;100.00;61375.16;5014641;28;20636;-29
2021/08/11 10:08:27;;;;;;;8.82;3.88;;;;;;;-148.56;100.00;61375.16;5014807;28;20122;-33
2021/08/11 10:11:51;;;;;;;7.38;3.28;;;;;;;-148.56;100.00;61375.16;5020258;28;20546;-31
2021/08/11 10:15:16;;;;;;;8.35;3.83;;;;;;;-148.56;100.00;61375.16;5017631;28;20037;-32
2021/08/11 10:18:40;;;;;;;10.00;3.63;;;;;;;-148.56;100.00;61375.16;5012538;28;20148;-30
2021/08/11 10:22:21;;;;;;;9.00;3.40;;;;;;;-148.56;100.00;61375.16;5008068;28;20088;-32
2021/08/11 10:25:46;;;;;;;7.35;3.60;;;;;;;-148.56;100.00;61375.16;5015687;28;20049;-33
2021/08/11 10:29:10;;;;;;;8.25;3.10;;;;;;;-148.56;100.00;61375.16;5016880;28;20026;-31
2021/08/11 10:32:34;;;;;;;11.07;3.40;;;;;;;-148.56;100.00;61375.16;5007292;28;20822;-35
2021/08/11 10:35:57;;;;;;;7.18;3.33;;;;;;;-148.56;100.00;61375.16;5013082;28;20048;-35
2021/08/11 10:39:21;;;;;;;5.65;2.92;;;;;;;-148.56;100.00;61375.16;5016121;28;20112;-30
2021/08/11 10:42:52;;;;;;;7.20;3.40;;;;;;;-148.56;100.00;61375.16;5005342;28;20037;-31
2021/08/11 10:46:18;;;;;;;6.85;2.95;;;;;;;-148.56;100.00;61375.16;5010666;28;20033;-31
2021/08/11 10:49:51;;;;;;;6.05;2.85;;;;;;;-148.56;100.00;61375.16;5006401;28;20738;-29
2021/08/11 10:53:15;;;;;;;6.95;2.90;;;;;;;-148.56;100.00;61375.16;5013330;28;20039;-32
2021/08/11 10:56:41;;;;;;;5.70;2.80;;;;;;;-148.56;100.00;61375.16;5004263;28;20032;-29
2021/08/11 11:00:05;;;;;;;5.53;2.85;;;;;;;-148.56;100.00;61375.16;5018765;28;20033;-33
2021/08/11 11:03:48;;;;;;;6.72;3.30;;;;;;;-148.56;100.00;61375.16;5013691;28;20442;-35
2021/08/11 11:07:13;;;;;;;5.05;2.72;;;;;;;-148.56;100.00;61375.16;5009475;28;20074;-32
2021/08/11 11:10:38;;;;;;;4.93;2.95;;;;;;;-148.56;100.00;61375.16;5021726;28;20057;-32
2021/08/11 11:14:40;;;;;;;4.57;2.58;;;;;;;-148.56;100.00;61375.16;5024545;28;20494;-31
2021/08/11 11:18:10;;;;;;;5.38;3.15;;;;;;;-148.56;100.00;61375.16;5019099;28;20371;-31
2021/08/11 11:21:34;;;;;;;5.38;2.95;;;;;;;-148.56;100.00;61375.16;5017651;28;20111;-28
2021/08/11 11:24:58;;;;;;;8.88;3.08;;;;;;;-148.56;100.00;61375.16;5021425;28;20091;-31
2021/08/11 11:28:52;;;;;;;6.45;2.75;;;;;;;-148.56;100.00;61375.16;5015448;28;20629;-31
2021/08/11 11:32:29;;;;;;;6.35;2.55;;;;;;;-148.56;100.00;61375.16;5021064;28;20851;-34
2021/08/11 11:36:22;;;;;;;5.78;2.50;;;;;;;-148.56;100.00;61375.16;5005753;28;20448;-29
2021/08/11 11:40:04;;;;;;;5.22;2.63;;;;;;;-148.56;100.00;61375.16;5033932;28;20068;-31
2021/08/11 11:43:28;;;;;;;4.50;2.80;;;;;;;-148.56;100.00;61375.16;5015204;28;20549;-31
2021/08/11 11:46:52;;;;;;;5.75;2.70;;;;;;;-148.56;100.00;61375.16;5014709;28;20041;-30
2021/08/11 11:50:19;;;;;;;7.35;3.03;;;;;;;-148.56;100.00;61375.16;5019560;28;20040;-33
2021/08/11 11:53:46;;;;;;;6.72;2.70;;;;;;;-148.56;100.00;61375.16;5021240;28;20026;-30
2021/08/11 11:57:14;;;;;;;5.50;2.65;;;;;;;-148.56;100.00;61375.16;5010307;28;20029;-33
2021/08/11 12:00:46;;;;;;;4.07;2.63;;;;;;;-148.56;100.00;61375.16;5022726;28;20118;-30
2021/08/11 12:04:10;;;;;;;5.07;2.65;;;;;;;-148.56;100.00;61375.16;5021940;28;20583;-29
2021/08/11 12:07:35;;;;;;;4.85;2.72;;;;;;;-148.56;100.00;61375.16;5008973;28;20458;-31
2021/08/11 12:11:00;;;;;;;5.53;2.45;;;;;;;-148.56;100.00;61375.16;5021590;28;20104;-32
2021/08/11 12:14:24;;;;;;;5.25;2.90;;;;;;;-148.56;100.00;61375.16;5010929;28;20057;-34
2021/08/11 12:17:48;;;;;;;5.07;2.47;;;;;;;-148.56;100.00;61375.16;5021364;28;20647;-32
2021/08/11 12:21:31;;;;;;;3.90;2.20;;;;;;;-148.56;100.00;61375.16;5019307;28;20060;-36
2021/08/11 12:24:55;;;;;;;5.15;2.63;;;;;;;-148.56;100.00;61375.16;5020401;28;20152;-32
2021/08/11 12:28:19;;;;;;;3.75;2.30;;;;;;;-148.56;100.00;61375.16;5017351;28;20029;-31
2021/08/11 12:31:55;;;;;;;5.40;2.67;;;;;;;-148.56;100.00;61375.16;5022076;28;20040;-31
2021/08/11 12:35:19;;;;;;;3.72;2.20;;;;;;;-148.56;100.00;61375.16;5017607;28;20432;-31
2021/08/11 12:38:57;;;;;;;4.32;2.30;;;;;;;-148.56;100.00;61375.16;5022123;28;20048;-34
2021/08/11 12:42:22;;;;;;;5.43;2.33;;;;;;;-148.56;100.00;61375.16;5017666;28;20037;-34
2021/08/11 12:45:52;;;;;;;4.35;2.40;;;;;;;-148.56;100.00;61375.16;5019893;28;20087;-30
2021/08/11 12:49:23;;;;;;;3.83;1.92;;;;;;;-148.56;100.00;61375.16;5019279;28;20025;-32
2021/08/11 12:53:07;;;;;;;4.55;2.25;;;;;;;-148.56;100.00;61375.16;5019973;28;20113;-31
2021/08/11 12:56:31;;;;;;;4.38;2.35;;;;;;;-148.56;100.00;61375.16;5019433;28;20044;-32
2021/08/11 12:59:56;;;;;;;3.58;2.35;;;;;;;-148.56;100.00;61375.16;5021821;28;20037;-34
2021/08/11 13:03:23;;;;;;;5.30;2.50;;;;;;;-148.56;100.00;61375.16;5016113;28;20773;-33
2021/08/11 13:06:47;;;;;;;3.75;2.10;;;;;;;-148.56;100.00;61375.16;5018018;28;20072;-32
2021/08/11 13:10:22;;;;;;;4.03;1.90;;;;;;;-148.56;100.00;61375.16;5017909;28;20036;-31
2021/08/11 13:13:50;;;;;;;3.97;2.20;;;;;;;-148.56;100.00;61375.16;5016391;28;20037;-34
2021/08/11 13:17:18;;;;;;;7.35;2.35;;;;;;;-148.56;100.00;61375.16;5018039;28;20022;-29
2021/08/11 13:20:48;;;;;;;3.90;1.80;;;;;;;-148.56;100.00;61375.16;5015015;28;20407;-31
2021/08/11 13:24:13;;;;;;;2.45;1.70;;;;;;;-148.56;100.00;61375.16;5007426;28;20025;-32
2021/08/11 13:27:38;;;;;;;4.43;1.98;;;;;;;-148.56;100.00;61375.16;5014853;28;20565;-31
2021/08/11 13:31:02;;;;;;;3.50;2.05;;;;;;;-148.56;100.00;61375.16;5008035;28;20121;-35
2021/08/11 13:34:26;;;;;;;3.75;2.05;;;;;;;-148.56;100.00;61375.16;5008581;28;20025;-31
2021/08/11 13:37:50;;;;;;;4.43;1.95;;;;;;;-148.56;100.00;61375.16;5008153;28;20558;-31
2021/08/11 13:41:14;;;;;;;9.35;1.85;;;;;;;-148.56;100.00;61375.16;5009038;28;20033;-28
2021/08/11 13:44:38;;;;;;;11.43;3.22;;;;;;;-148.56;100.00;61375.16;5011357;28;20029;-32
2021/08/11 13:48:02;;;;;;;4.35;2.20;;;;;;;-148.56;100.00;61375.16;4991378;28;20051;-36
2021/08/11 13:51:26;;;;;;;4.45;1.98;;;;;;;-148.56;100.00;61375.16;5019077;28;20392;-29
2021/08/11 13:54:50;;;;;;;10.27;1.85;;;;;;;-148.56;100.00;61375.16;5019953;28;20646;-32
2021/08/11 13:58:14;;;;;;;5.45;2.30;;;;;;;-148.56;100.00;61375.16;5007378;28;20037;-32
2021/08/11 14:01:38;;;;;;;4.63;2.20;;;;;;;-148.56;100.00;61375.16;5007485;28;20044;-32
2021/08/11 14:05:02;;;;;;;2.60;1.75;;;;;;;-148.56;100.00;61375.16;5009356;28;20840;-33
2021/08/11 14:08:26;;;;;;;2.05;1.65;;;;;;;-148.56;100.00;61375.16;5010703;28;20645;-31
2021/08/11 14:11:50;;;;;;;5.35;1.90;;;;;;;-148.56;100.00;61375.16;5007855;28;20143;-32
2021/08/11 14:15:14;;;;;;;6.53;1.98;;;;;;;-148.56;100.00;61375.16;5010029;28;20064;-30
2021/08/11 14:18:38;;;;;;;3.30;2.03;;;;;;;-148.56;100.00;61375.16;5015364;28;20029;-30
2021/08/11 14:22:05;;;;;;;3.58;2.03;;;;;;;-148.56;100.00;61375.16;5007720;28;20061;-31
2021/08/11 14:25:29;;;;;;;4.65;2.00;;;;;;;-148.56;100.00;61375.16;5007853;28;20022;-32
2021/08/11 14:28:56;;;;;;;2.78;1.90;;;;;;;-148.56;100.00;61375.16;5005309;28;20044;-30
2021/08/11 14:32:20;;;;;;;3.30;2.10;;;;;;;-148.56;100.00;61375.16;4980855;28;20048;-30
2021/08/11 14:35:44;;;;;;;3.33;2.25;;;;;;;-148.56;100.00;61375.16;4991319;28;20495;-33
2021/08/11 14:39:08;;;;;;;3.90;2.33;;;;;;;-148.56;100.00;61375.16;4989565;28;20511;-30
2021/08/11 14:42:32;;;;;;;4.47;2.13;;;;;;;-148.56;100.00;61375.16;4995087;28;20037;-30
2021/08/11 14:45:59;;;;;;;5.95;2.10;;;;;;;-148.56;100.00;61375.16;4995359;28;20081;-31
2021/08/11 14:49:22;;;;;;;3.08;2.17;;;;;;;-148.56;100.00;61375.16;4990051;28;20068;-32
2021/08/11 14:52:47;;;;;;;5.03;2.22;;;;;;;-148.56;100.00;61375.16;4989754;28;20054;-31
2021/08/11 14:56:11;;;;;;;3.15;2.10;;;;;;;-148.56;100.00;61375.16;4987827;28;20030;-30
2021/08/11 14:59:35;;;;;;;3.00;1.98;;;;;;;-148.56;100.00;61375.16;5011785;28;20037;-30
2021/08/11 15:02:59;;;;;;;2.67;1.98;;;;;;;-148.56;100.00;61375.16;5012487;28;20025;-32
2021/08/11 15:06:22;;;;;;;4.55;2.40;;;;;;;-148.56;100.00;61375.16;5008285;28;20032;-34
2021/08/11 15:09:46;;;;;;;2.72;2.10;;;;;;;-148.56;100.00;61375.16;5012005;28;20028;-30
2021/08/11 15:13:10;;;;;;;3.15;1.90;;;;;;;-148.56;100.00;61375.16;5011549;28;20510;-29
2021/08/11 15:16:34;;;;;;;4.47;2.35;;;;;;;-148.56;100.00;61375.16;5012924;28;20112;-31
2021/08/11 15:19:58;;;;;;;3.25;2.35;;;;;;;-148.56;100.00;61375.16;5006000;28;20063;-28
2021/08/11 15:23:22;;;;;;;5.25;2.53;;;;;;;-148.56;100.00;61375.16;5013904;28;20045;-31
2021/08/11 15:26:47;;;;;;;5.38;2.22;;;;;;;-148.56;100.00;61375.16;5012252;28;20060;-32
2021/08/11 15:30:12;;;;;;;3.65;2.40;;;;;;;-148.56;100.00;61375.16;5010384;28;20424;-31
2021/08/11 15:33:35;;;;;;;5.60;2.60;;;;;;;-148.56;100.00;61375.16;5012600;28;20060;-33
2021/08/11 15:36:59;;;;;;;6.35;2.92;;;;;;;-148.56;100.00;61375.16;5011371;28;20025;-36